Time;durP1;ratioP1;P1;durP2;ratioP2;P2;SDS_P1;SDS_P2;PMS_P1;PMS_P2;Temp;Humidity;BMP_temperature;BMP_pressure;BME280_temperature;BME280_humidity;BME280_pressure;Samples;Min_cycle;Max_cycle;Signal;HPM_P1;HPM_P2
2021/08/20 00:00:52;;;;;;;7.03;1.65;;;13.20;72.50;;;;;;5008648;28;20112;-71
2021/08/20 00:03:20;;;;;;;2.85;1.48;;;13.20;72.60;;;;;;5007148;28;20493;-74
2021/08/20 00:05:47;;;;;;;4.55;1.50;;;13.20;72.70;;;;;;5005732;28;20048;-73
2021/08/20 00:08:14;;;;;;;3.35;1.58;;;13.10;72.70;;;;;;5003409;28;20117;-73
2021/08/20 00:10:41;;;;;;;6.72;1.38;;;13.20;72.90;;;;;;5004694;28;20025;-75
2021/08/20 00:13:08;;;;;;;4.40;1.55;;;13.10;72.90;;;;;;5004980;28;20101;-74
2021/08/20 00:15:45;;;;;;;5.68;1.77;;;13.10;73.00;;;;;;5004792;28;20629;-73
2021/08/20 00:18:12;;;;;;;3.22;1.20;;;13.10;73.00;;;;;;5006338;28;20025;-72
2021/08/20 00:20:39;;;;;;;4.13;1.30;;;13.10;73.00;;;;;;5003318;28;20018;-74
2021/08/20 00:23:06;;;;;;;7.75;2.10;;;13.10;73.00;;;;;;4989338;28;20492;-74
2021/08/20 00:25:33;;;;;;;6.80;2.72;;;13.10;73.20;;;;;;5004676;28;20034;-74
2021/08/20 00:28:00;;;;;;;4.95;1.13;;;13.10;73.10;;;;;;5009384;28;20029;-74
2021/08/20 00:30:26;;;;;;;1.85;1.38;;;13.10;73.50;;;;;;5007715;28;20030;-73
2021/08/20 00:32:53;;;;;;;2.72;1.45;;;13.10;73.20;;;;;;5006348;28;20519;-70
2021/08/20 00:35:20;;;;;;;3.42;1.30;;;13.10;73.20;;;;;;5006754;28;20059;-70
2021/08/20 00:37:47;;;;;;;5.15;1.85;;;13.10;73.00;;;;;;5007931;28;20038;-71
2021/08/20 00:40:14;;;;;;;1.55;0.93;;;13.10;73.20;;;;;;5008995;28;20026;-74
2021/08/20 00:42:42;;;;;;;2.70;1.33;;;13.00;73.10;;;;;;5003477;28;20034;-73
2021/08/20 00:45:14;;;;;;;6.22;1.08;;;13.00;73.30;;;;;;4989992;28;20388;-70
2021/08/20 00:47:41;;;;;;;2.67;1.00;;;12.90;73.30;;;;;;5005935;28;20076;-73
2021/08/20 00:50:12;;;;;;;3.83;1.60;;;12.90;73.60;;;;;;5006141;28;20113;-73
2021/08/20 00:52:39;;;;;;;2.38;1.10;;;12.90;73.70;;;;;;4989609;28;20029;-73
2021/08/20 00:55:15;;;;;;;2.05;1.33;;;12.90;73.70;;;;;;5010474;28;20040;-73
2021/08/20 00:57:48;;;;;;;2.25;0.90;;;12.90;73.70;;;;;;5007177;28;20022;-73
2021/08/20 01:00:19;;;;;;;6.63;2.33;;;12.90;73.70;;;;;;5010573;28;20045;-73
2021/08/20 01:02:47;;;;;;;2.20;1.70;;;12.80;73.80;;;;;;5011089;28;20029;-73
2021/08/20 01:05:18;;;;;;;3.30;1.30;;;12.80;73.90;;;;;;5008924;28;20003;-74
2021/08/20 01:07:49;;;;;;;5.88;1.63;;;12.80;74.00;;;;;;4991635;28;20038;-73
2021/08/20 01:10:17;;;;;;;6.97;1.95;;;12.80;74.10;;;;;;4991241;28;20030;-73
2021/08/20 01:12:51;;;;;;;3.67;1.30;;;12.80;74.20;;;;;;5009439;28;20023;-73
2021/08/20 01:15:18;;;;;;;4.78;1.55;;;12.70;74.00;;;;;;5013785;28;20105;-73
2021/08/20 01:17:53;;;;;;;6.43;1.65;;;12.70;74.10;;;;;;5012953;28;20069;-74
2021/08/20 01:20:21;;;;;;;5.68;1.35;;;12.70;74.20;;;;;;5010029;28;20020;-74
2021/08/20 01:22:48;;;;;;;5.53;1.48;;;12.70;74.30;;;;;;5008970;28;20030;-73
2021/08/20 01:25:20;;;;;;;3.83;1.80;;;12.70;74.40;;;;;;4994306;28;20026;-70
2021/08/20 01:27:47;;;;;;;7.30;2.50;;;12.70;74.40;;;;;;5008339;28;20117;-71
2021/08/20 01:30:19;;;;;;;5.20;1.42;;;12.60;74.50;;;;;;5011578;28;20084;-71
2021/08/20 01:32:47;;;;;;;4.05;1.30;;;12.60;74.50;;;;;;5009247;28;20030;-69
2021/08/20 01:35:13;;;;;;;8.70;2.42;;;12.60;74.60;;;;;;4992863;28;20026;-69
2021/08/20 01:37:40;;;;;;;10.40;1.80;;;12.60;74.70;;;;;;5007478;28;20037;-68
2021/08/20 01:40:07;;;;;;;3.22;1.73;;;12.60;74.70;;;;;;5010863;28;20029;-68
2021/08/20 01:42:33;;;;;;;6.97;2.00;;;12.60;74.80;;;;;;5006253;28;20034;-69
2021/08/20 01:45:00;;;;;;;3.85;1.48;;;12.50;74.90;;;;;;5012372;28;20440;-70
2021/08/20 01:47:38;;;;;;;8.60;1.80;;;12.50;74.90;;;;;;5009714;28;20646;-70
2021/08/20 01:50:08;;;;;;;7.43;2.00;;;12.50;75.10;;;;;;5008177;28;20025;-69
2021/08/20 01:52:35;;;;;;;5.55;2.50;;;12.50;75.00;;;;;;5010811;28;20113;-69
2021/08/20 01:55:07;;;;;;;7.63;3.35;;;12.60;75.20;;;;;;5009099;28;20527;-66
2021/08/20 01:57:43;;;;;;;7.50;3.17;;;12.50;75.20;;;;;;5011608;28;20040;-66
2021/08/20 02:00:11;;;;;;;7.43;3.38;;;12.50;75.30;;;;;;5007753;28;20085;-67
2021/08/20 02:02:38;;;;;;;29.40;16.55;;;12.50;75.40;;;;;;5008509;28;20030;-71
2021/08/20 02:05:05;;;;;;;41.15;28.30;;;12.60;75.60;;;;;;5009348;28;20481;-67
2021/08/20 02:07:35;;;;;;;24.20;14.18;;;12.70;75.50;;;;;;5009128;28;20033;-66
2021/08/20 02:10:05;;;;;;;11.65;4.57;;;12.70;75.20;;;;;;5014230;28;20014;-67
2021/08/20 02:12:32;;;;;;;9.63;3.55;;;12.70;74.90;;;;;;5005162;28;20026;-70
2021/08/20 02:14:58;;;;;;;6.50;2.70;;;12.70;74.90;;;;;;5011895;28;20081;-68
2021/08/20 02:17:25;;;;;;;6.82;2.33;;;12.70;74.80;;;;;;5005434;28;20384;-67
2021/08/20 02:19:51;;;;;;;4.18;2.88;;;12.60;74.80;;;;;;5008490;28;20421;-71
2021/08/20 02:22:18;;;;;;;8.23;2.20;;;12.60;75.00;;;;;;5013497;28;20045;-69
2021/08/20 02:24:44;;;;;;;6.63;1.95;;;12.60;75.00;;;;;;5009445;28;20033;-66
2021/08/20 02:27:10;;;;;;;8.55;1.92;;;12.60;75.20;;;;;;5011376;28;20026;-69
2021/08/20 02:29:37;;;;;;;6.13;1.92;;;12.50;75.40;;;;;;5007870;28;20026;-69
2021/08/20 02:32:04;;;;;;;4.82;1.30;;;12.50;75.50;;;;;;5007850;28;20081;-66
2021/08/20 02:34:30;;;;;;;3.75;1.45;;;12.60;75.60;;;;;;5010069;28;20424;-66
2021/08/20 02:36:57;;;;;;;2.45;1.17;;;12.60;75.70;;;;;;5004888;28;20068;-66
2021/08/20 02:39:24;;;;;;;5.32;1.92;;;12.60;75.80;;;;;;5008251;28;20029;-70
2021/08/20 02:41:51;;;;;;;6.03;2.20;;;12.60;75.70;;;;;;5008656;28;20050;-69
2021/08/20 02:44:17;;;;;;;2.75;1.40;;;12.60;75.40;;;;;;5012421;28;20026;-67
2021/08/20 02:46:44;;;;;;;5.22;2.10;;;12.60;75.50;;;;;;5009402;28;20073;-67
2021/08/20 02:49:11;;;;;;;4.70;1.77;;;12.60;75.50;;;;;;5007016;28;20073;-70
2021/08/20 02:51:37;;;;;;;4.93;1.75;;;12.60;75.60;;;;;;5006163;28;20025;-70
2021/08/20 02:54:04;;;;;;;4.78;1.48;;;12.50;75.50;;;;;;5009228;28;20034;-72
2021/08/20 02:56:30;;;;;;;13.48;9.00;;;12.50;75.50;;;;;;5008460;28;20481;-67
2021/08/20 02:58:57;;;;;;;20.20;10.85;;;12.50;76.00;;;;;;5007722;28;20018;-70
2021/08/20 03:01:24;;;;;;;4.30;2.35;;;12.50;76.00;;;;;;5006845;28;20141;-68
2021/08/20 03:03:52;;;;;;;5.28;1.25;;;12.50;75.90;;;;;;5008627;28;20089;-68
2021/08/20 03:06:18;;;;;;;2.42;1.00;;;12.60;76.00;;;;;;5007987;28;20018;-68
2021/08/20 03:08:45;;;;;;;5.90;1.65;;;12.60;75.80;;;;;;5006189;28;20018;-68
2021/08/20 03:11:11;;;;;;;4.78;2.10;;;12.50;75.90;;;;;;4987418;28;20013;-71
2021/08/20 03:13:38;;;;;;;2.53;1.00;;;12.60;75.80;;;;;;5008901;28;20069;-68
2021/08/20 03:16:05;;;;;;;2.03;1.00;;;12.50;75.70;;;;;;5012268;28;20021;-69
2021/08/20 03:18:31;;;;;;;4.50;1.27;;;12.60;75.80;;;;;;5010064;28;20108;-69
2021/08/20 03:20:58;;;;;;;8.25;1.83;;;12.50;75.70;;;;;;5007348;28;20489;-67
2021/08/20 03:23:24;;;;;;;4.05;1.40;;;12.60;75.50;;;;;;5003243;28;20551;-68
2021/08/20 03:25:51;;;;;;;8.90;1.00;;;12.50;75.60;;;;;;5005291;28;20415;-67
2021/08/20 03:28:17;;;;;;;8.73;1.23;;;12.50;75.70;;;;;;5009351;28;20042;-69
2021/08/20 03:30:44;;;;;;;2.97;0.93;;;12.50;75.70;;;;;;5007057;28;20028;-70
2021/08/20 03:33:10;;;;;;;2.92;1.13;;;12.50;75.60;;;;;;5008244;28;20448;-68
2021/08/20 03:35:37;;;;;;;9.95;8.25;;;12.50;75.60;;;;;;5012563;28;20732;-71
2021/08/20 03:38:03;;;;;;;47.63;34.33;;;12.50;75.60;;;;;;5010254;28;20022;-69
2021/08/20 03:40:30;;;;;;;21.85;12.85;;;12.50;75.60;;;;;;5007713;28;20040;-67
2021/08/20 03:42:57;;;;;;;4.97;2.13;;;12.60;75.50;;;;;;5009026;28;20076;-68
2021/08/20 03:45:23;;;;;;;3.58;1.50;;;12.60;75.20;;;;;;5011140;28;20020;-68
2021/08/20 03:47:50;;;;;;;4.47;0.80;;;12.60;75.30;;;;;;5003783;28;20038;-67
2021/08/20 03:50:17;;;;;;;1.73;0.88;;;12.50;75.30;;;;;;5011958;28;20046;-73
2021/08/20 03:52:43;;;;;;;8.77;2.03;;;12.50;75.60;;;;;;5006735;28;20022;-67
2021/08/20 03:55:10;;;;;;;5.68;1.65;;;12.50;75.60;;;;;;5005607;28;20014;-71
2021/08/20 03:57:36;;;;;;;5.25;1.50;;;12.50;75.60;;;;;;5008522;28;20018;-70
2021/08/20 04:00:05;;;;;;;5.00;1.10;;;12.50;75.70;;;;;;5004843;28;20010;-72
2021/08/20 04:02:32;;;;;;;4.75;1.05;;;12.40;75.60;;;;;;5005993;28;20026;-69
2021/08/20 04:05:00;;;;;;;4.53;1.00;;;12.40;75.70;;;;;;5001805;28;20113;-69
2021/08/20 04:07:27;;;;;;;4.40;1.73;;;12.40;75.60;;;;;;5004529;28;20042;-66
2021/08/20 04:09:53;;;;;;;2.72;1.50;;;12.40;75.60;;;;;;5005327;28;20019;-66
2021/08/20 04:12:20;;;;;;;1.95;0.95;;;12.40;75.80;;;;;;5010297;28;20024;-65
2021/08/20 04:14:47;;;;;;;8.68;2.75;;;12.40;75.90;;;;;;5006572;28;20029;-68
2021/08/20 04:17:13;;;;;;;6.10;1.42;;;12.30;75.90;;;;;;5007322;28;20057;-68
2021/08/20 04:19:40;;;;;;;3.45;1.50;;;12.30;76.10;;;;;;5007567;28;20022;-68
2021/08/20 04:22:06;;;;;;;5.63;1.35;;;12.30;76.30;;;;;;5007137;28;20014;-68
2021/08/20 04:24:41;;;;;;;20.13;13.13;;;12.30;76.30;;;;;;5005919;28;20164;-70
2021/08/20 04:27:09;;;;;;;27.45;16.35;;;12.30;76.70;;;;;;4985729;28;20121;-70
2021/08/20 04:29:36;;;;;;;9.27;5.10;;;12.30;76.50;;;;;;5006458;28;20485;-69
2021/08/20 04:32:03;;;;;;;7.72;1.70;;;12.40;76.10;;;;;;5007265;28;20101;-68
2021/08/20 04:34:29;;;;;;;3.53;1.38;;;12.40;76.00;;;;;;5011337;28;20137;-71
2021/08/20 04:36:56;;;;;;;4.70;1.75;;;12.30;76.00;;;;;;5005164;28;20030;-71
2021/08/20 04:39:22;;;;;;;3.55;2.00;;;12.30;76.20;;;;;;5005769;28;20009;-70
2021/08/20 04:41:49;;;;;;;6.22;3.72;;;12.30;76.10;;;;;;5006692;28;20740;-72
2021/08/20 04:44:16;;;;;;;6.10;2.10;;;12.30;76.40;;;;;;5008609;28;20022;-69
2021/08/20 04:46:43;;;;;;;3.67;1.70;;;12.30;76.50;;;;;;5010057;28;20520;-68
2021/08/20 04:49:12;;;;;;;12.32;3.22;;;12.20;76.60;;;;;;5006934;28;20076;-68
2021/08/20 04:51:41;;;;;;;5.95;2.38;;;12.30;76.80;;;;;;5007138;28;20014;-72
2021/08/20 04:54:08;;;;;;;6.03;3.05;;;12.20;76.60;;;;;;5006315;28;20030;-72
2021/08/20 04:56:34;;;;;;;9.60;1.80;;;12.30;76.60;;;;;;5007793;28;20030;-70
2021/08/20 04:59:02;;;;;;;5.50;1.90;;;12.30;76.60;;;;;;5004735;28;20480;-69
2021/08/20 05:01:30;;;;;;;6.00;2.03;;;12.30;76.60;;;;;;5001878;28;20058;-71
2021/08/20 05:03:58;;;;;;;5.35;1.48;;;12.30;76.50;;;;;;5009246;28;20477;-71
2021/08/20 05:06:24;;;;;;;5.90;1.48;;;12.30;76.50;;;;;;5004986;28;20026;-69
2021/08/20 05:08:56;;;;;;;4.47;2.00;;;12.30;76.40;;;;;;5010560;28;20034;-70
2021/08/20 05:11:23;;;;;;;11.38;2.00;;;12.20;76.30;;;;;;5003592;28;20028;-70
2021/08/20 05:13:49;;;;;;;5.28;1.80;;;12.30;76.70;;;;;;5001329;28;20097;-71
2021/08/20 05:16:16;;;;;;;2.75;1.45;;;12.20;76.50;;;;;;5004982;28;20687;-71
2021/08/20 05:18:53;;;;;;;6.35;1.67;;;12.30;77.20;;;;;;5004434;28;20021;-72
2021/08/20 05:21:21;;;;;;;8.00;1.50;;;12.30;76.60;;;;;;4978705;28;20037;-72
2021/08/20 05:23:51;;;;;;;3.85;1.75;;;12.30;76.50;;;;;;4982022;28;20025;-71
2021/08/20 05:26:18;;;;;;;2.58;1.13;;;12.30;76.50;;;;;;4978947;28;20109;-71
2021/08/20 05:29:24;;;;;;;9.15;2.28;;;12.20;76.40;;;;;;4994075;28;20149;-72
2021/08/20 05:31:59;;;;;;;6.68;2.15;;;12.20;76.50;;;;;;5006534;28;20018;-73
2021/08/20 05:34:25;;;;;;;7.25;2.05;;;12.20;76.30;;;;;;4997905;28;20404;-74
2021/08/20 05:36:53;;;;;;;8.50;2.67;;;12.30;76.40;;;;;;5001519;28;20054;-74
2021/08/20 05:39:20;;;;;;;5.28;1.40;;;12.20;76.30;;;;;;5000077;28;20018;-73
2021/08/20 05:41:46;;;;;;;4.22;1.98;;;12.30;76.50;;;;;;5015182;28;20026;-72
2021/08/20 05:44:13;;;;;;;4.85;1.98;;;12.30;76.50;;;;;;4990077;28;20033;-71
2021/08/20 05:46:39;;;;;;;9.15;2.35;;;12.30;76.60;;;;;;5004609;28;20028;-73
2021/08/20 05:49:07;;;;;;;4.63;2.15;;;12.20;76.50;;;;;;5012044;28;20022;-70
2021/08/20 05:51:34;;;;;;;4.47;2.13;;;12.30;76.50;;;;;;5008666;28;20022;-71
2021/08/20 05:54:04;;;;;;;5.10;2.03;;;12.30;76.60;;;;;;5005743;28;20113;-71
2021/08/20 05:56:30;;;;;;;4.28;2.03;;;12.30;76.70;;;;;;5008662;28;20021;-73
2021/08/20 05:59:38;;;;;;;7.32;2.10;;;12.30;76.80;;;;;;5010273;28;20029;-71
2021/08/20 06:02:46;;;;;;;3.15;1.88;;;12.30;76.80;;;;;;5008889;28;20042;-71
2021/08/20 06:05:52;;;;;;;4.40;1.80;;;12.40;76.90;;;;;;5004165;28;20061;-71
2021/08/20 06:08:58;;;;;;;4.47;1.40;;;12.40;76.80;;;;;;5005154;28;20085;-71
2021/08/20 06:12:04;;;;;;;4.97;1.55;;;12.40;76.80;;;;;;4988129;28;20412;-74
2021/08/20 06:15:10;;;;;;;9.80;1.35;;;12.40;76.80;;;;;;4991807;28;20512;-73
2021/08/20 06:18:16;;;;;;;3.20;0.85;;;12.50;76.90;;;;;;4992091;28;20030;-71
2021/08/20 06:21:22;;;;;;;3.38;1.27;;;12.50;77.10;;;;;;5009031;28;20018;-71
2021/08/20 06:24:28;;;;;;;4.57;1.45;;;12.50;77.10;;;;;;5003976;28;20472;-71
2021/08/20 06:27:34;;;;;;;12.32;2.17;;;12.50;77.40;;;;;;5009397;28;20033;-70
2021/08/20 06:30:45;;;;;;;3.33;1.08;;;12.60;77.70;;;;;;5007367;28;20476;-73
2021/08/20 06:33:53;;;;;;;3.17;1.38;;;12.60;77.80;;;;;;5010164;28;20024;-71
2021/08/20 06:36:59;;;;;;;8.90;1.25;;;12.60;78.00;;;;;;5009125;28;20017;-70
2021/08/20 06:40:05;;;;;;;8.65;1.70;;;12.70;78.10;;;;;;5007999;28;20431;-71
2021/08/20 06:42:32;;;;;;;3.47;1.10;;;12.70;78.10;;;;;;5007803;28;20029;-70
2021/08/20 06:44:58;;;;;;;3.88;1.58;;;12.80;78.20;;;;;;5008232;28;20485;-73
2021/08/20 06:47:25;;;;;;;3.00;1.15;;;12.90;78.20;;;;;;5007095;28;20048;-69
2021/08/20 06:49:51;;;;;;;3.35;1.77;;;12.90;78.20;;;;;;5015064;28;20028;-73
2021/08/20 06:52:18;;;;;;;4.30;1.05;;;12.90;78.00;;;;;;5008886;28;20026;-71
2021/08/20 06:54:44;;;;;;;3.45;1.23;;;13.00;78.00;;;;;;5007509;28;20022;-70
2021/08/20 06:57:12;;;;;;;7.90;1.30;;;13.10;77.60;;;;;;5007681;28;20023;-70
2021/08/20 06:59:38;;;;;;;6.97;1.80;;;13.10;77.20;;;;;;5005938;28;20022;-71
2021/08/20 07:02:05;;;;;;;7.22;1.55;;;13.20;77.10;;;;;;4991444;28;20045;-70
2021/08/20 07:04:33;;;;;;;4.75;1.45;;;13.30;76.90;;;;;;5006322;28;20034;-70
2021/08/20 07:07:00;;;;;;;4.32;1.60;;;13.30;76.60;;;;;;5008895;28;20469;-73
2021/08/20 07:09:26;;;;;;;4.65;1.95;;;13.40;76.10;;;;;;4989521;28;20497;-72
2021/08/20 07:11:53;;;;;;;3.72;1.33;;;13.40;75.60;;;;;;5009837;28;20496;-71
2021/08/20 07:14:19;;;;;;;2.72;1.20;;;13.50;75.50;;;;;;5007867;28;20037;-70
2021/08/20 07:16:46;;;;;;;6.35;2.00;;;13.50;75.50;;;;;;4990116;28;20034;-72
2021/08/20 07:19:12;;;;;;;5.32;1.73;;;13.50;75.40;;;;;;5010186;28;20041;-69
2021/08/20 07:21:42;;;;;;;6.93;1.63;;;13.60;75.40;;;;;;5009440;28;20045;-71
2021/08/20 07:24:09;;;;;;;2.78;1.67;;;13.60;75.40;;;;;;5010387;28;20412;-70
2021/08/20 07:26:35;;;;;;;3.00;2.47;;;13.70;75.40;;;;;;5006388;28;20030;-69
2021/08/20 07:29:02;;;;;;;5.60;1.92;;;13.70;75.20;;;;;;4985012;28;20064;-70
2021/08/20 07:31:29;;;;;;;3.50;1.85;;;13.80;75.10;;;;;;5007446;28;20058;-73
2021/08/20 07:33:55;;;;;;;5.50;1.92;;;13.80;74.80;;;;;;5011656;28;20060;-71
2021/08/20 07:36:22;;;;;;;8.32;2.38;;;13.90;74.50;;;;;;5009232;28;20013;-70
2021/08/20 07:38:48;;;;;;;10.30;3.15;;;13.90;74.50;;;;;;5006824;28;20417;-70
2021/08/20 07:41:15;;;;;;;6.55;2.60;;;14.00;74.50;;;;;;4991771;28;20383;-70
2021/08/20 07:43:41;;;;;;;13.15;3.65;;;14.00;74.50;;;;;;4988024;28;20691;-71
2021/08/20 07:46:08;;;;;;;6.07;2.15;;;14.10;74.40;;;;;;5005345;28;20040;-69
2021/08/20 07:48:34;;;;;;;6.93;3.60;;;14.10;73.80;;;;;;5005805;28;20077;-72
2021/08/20 07:51:01;;;;;;;6.57;3.08;;;14.20;73.50;;;;;;5009897;28;20021;-71
2021/08/20 07:53:27;;;;;;;6.22;3.13;;;14.20;73.50;;;;;;5008055;28;20032;-69
2021/08/20 07:55:54;;;;;;;6.25;2.38;;;14.30;73.50;;;;;;5005375;28;20432;-70
2021/08/20 07:58:20;;;;;;;7.15;3.13;;;14.30;73.10;;;;;;5013449;28;20025;-70
2021/08/20 08:00:47;;;;;;;6.47;2.95;;;14.40;72.80;;;;;;5003910;28;20053;-71
2021/08/20 08:03:13;;;;;;;5.38;2.60;;;14.50;72.90;;;;;;5004691;28;20013;-70
2021/08/20 08:05:40;;;;;;;4.93;2.63;;;14.50;71.80;;;;;;5003707;28;20104;-72
2021/08/20 08:08:07;;;;;;;3.10;2.00;;;14.60;70.80;;;;;;5009381;28;20195;-70
2021/08/20 08:10:33;;;;;;;6.13;1.55;;;14.60;69.80;;;;;;5006643;28;20080;-70
2021/08/20 08:13:00;;;;;;;3.13;1.80;;;14.70;70.00;;;;;;5008581;28;20022;-70
2021/08/20 08:15:27;;;;;;;5.78;2.10;;;14.80;69.10;;;;;;5005548;28;20048;-70
2021/08/20 08:17:55;;;;;;;5.10;1.65;;;14.80;68.10;;;;;;5008995;28;20017;-70
2021/08/20 08:20:22;;;;;;;7.07;2.72;;;14.90;67.40;;;;;;5009149;28;20022;-70
2021/08/20 08:22:49;;;;;;;8.18;3.05;;;14.90;67.50;;;;;;5006333;28;20017;-70
2021/08/20 08:25:16;;;;;;;6.35;2.53;;;15.00;67.20;;;;;;5006102;28;20022;-71
2021/08/20 08:27:58;;;;;;;5.45;1.83;;;15.10;67.30;;;;;;5004494;28;20038;-71
2021/08/20 08:30:33;;;;;;;5.53;2.60;;;15.20;67.20;;;;;;5002785;28;20022;-70
2021/08/20 08:33:00;;;;;;;;;;;15.20;67.20;;;;;;5007824;28;20427;-70
2021/08/20 08:35:30;;;;;;;4.80;1.45;;;15.30;66.70;;;;;;5005678;28;19944;-68
2021/08/20 08:38:07;;;;;;;7.65;2.30;;;15.40;66.40;;;;;;5001646;28;20081;-70
2021/08/20 08:40:36;;;;;;;5.85;1.40;;;15.40;66.30;;;;;;5001413;28;20014;-69
2021/08/20 08:43:06;;;;;;;11.88;1.65;;;15.50;65.20;;;;;;5003329;28;20030;-68
2021/08/20 08:45:34;;;;;;;3.70;1.50;;;15.60;64.70;;;;;;5001740;28;20037;-69
2021/08/20 08:48:06;;;;;;;5.68;1.90;;;15.70;64.80;;;;;;5003959;28;20044;-72
2021/08/20 08:51:12;;;;;;;5.28;1.52;;;15.70;64.80;;;;;;5004635;28;20562;-70
2021/08/20 08:54:19;;;;;;;3.92;1.00;;;15.80;64.70;;;;;;5001581;28;20049;-71
2021/08/20 08:57:25;;;;;;;5.75;0.90;;;15.90;63.80;;;;;;5003243;28;20041;-71
2021/08/20 09:00:31;;;;;;;4.03;1.00;;;16.00;63.00;;;;;;5002288;28;20508;-69
2021/08/20 09:03:43;;;;;;;3.10;1.33;;;16.20;61.00;;;;;;4999609;28;20034;-69
2021/08/20 09:06:55;;;;;;;4.78;0.90;;;16.20;60.20;;;;;;4984218;28;20018;-70
2021/08/20 09:10:01;;;;;;;1.90;0.90;;;16.30;60.30;;;;;;5002896;28;20037;-70
2021/08/20 09:12:50;;;;;;;2.55;0.88;;;16.40;60.20;;;;;;5006952;28;20539;-70
2021/08/20 09:15:56;;;;;;;4.53;2.22;;;16.50;58.70;;;;;;5003632;28;20775;-70
2021/08/20 09:19:02;;;;;;;1.92;0.85;;;16.70;58.50;;;;;;5010109;28;20122;-69
2021/08/20 09:22:11;;;;;;;1.70;0.82;;;16.80;58.80;;;;;;5009387;28;20026;-69
2021/08/20 09:25:17;;;;;;;2.53;0.70;;;16.80;57.70;;;;;;4987305;28;20423;-70
2021/08/20 09:28:29;;;;;;;1.92;0.73;;;17.00;58.10;;;;;;5008034;28;20034;-71
2021/08/20 09:30:56;;;;;;;2.50;0.85;;;17.00;57.80;;;;;;5006027;28;20026;-71
2021/08/20 09:33:42;;;;;;;0.90;0.68;;;17.10;56.60;;;;;;5006546;28;20030;-71
2021/08/20 09:36:48;;;;;;;2.22;0.80;;;17.20;57.00;;;;;;5006942;28;20018;-67
2021/08/20 09:40:00;;;;;;;2.05;0.90;;;17.30;56.30;;;;;;5002625;28;20519;-70
2021/08/20 09:43:08;;;;;;;2.22;1.20;;;17.40;55.60;;;;;;4987192;28;20044;-70
2021/08/20 09:46:14;;;;;;;32.85;2.10;;;17.50;55.30;;;;;;5007711;28;20026;-71
2021/08/20 09:48:47;;;;;;;8.10;1.23;;;17.60;54.60;;;;;;5006095;28;20038;-69
2021/08/20 09:51:54;;;;;;;2.83;1.13;;;17.70;54.60;;;;;;5009102;28;20836;-67
2021/08/20 09:55:03;;;;;;;5.32;1.45;;;17.80;54.80;;;;;;5007530;28;20049;-70
2021/08/20 09:57:31;;;;;;;2.88;1.20;;;17.80;54.60;;;;;;5007775;28;20026;-69
2021/08/20 09:59:58;;;;;;;6.25;1.73;;;18.00;54.80;;;;;;5007769;28;20039;-71
2021/08/20 10:02:27;;;;;;;4.43;2.10;;;18.00;55.10;;;;;;5011543;28;20057;-71
2021/08/20 10:04:59;;;;;;;7.90;5.05;;;18.10;57.00;;;;;;5007760;28;20022;-73
2021/08/20 10:07:28;;;;;;;6.88;5.05;;;18.20;56.50;;;;;;5005133;28;20037;-73
2021/08/20 10:09:56;;;;;;;4.07;2.13;;;18.30;56.40;;;;;;5001426;28;20057;-71
2021/08/20 10:12:24;;;;;;;5.00;2.90;;;18.40;56.30;;;;;;5011955;28;20020;-67
2021/08/20 10:14:52;;;;;;;3.63;2.03;;;18.40;57.00;;;;;;5004939;28;20060;-71
2021/08/20 10:17:20;;;;;;;3.83;1.92;;;18.30;57.60;;;;;;5013940;28;20021;-67
